createdAt,value
2022-07-29T00:02:25.879Z,19.20
2022-07-29T00:04:52.681Z,19.30
2022-07-29T00:07:19.546Z,18.80
2022-07-29T00:09:51.910Z,18.70
2022-07-29T00:12:25.153Z,18.60
2022-07-29T00:14:53.668Z,18.20
2022-07-29T00:17:20.407Z,18.80
2022-07-29T00:19:47.148Z,18.90
2022-07-29T00:22:13.864Z,19.30
2022-07-29T00:24:40.649Z,19.10
2022-07-29T00:27:07.419Z,19.20
2022-07-29T00:29:35.058Z,18.30
2022-07-29T00:32:03.021Z,18.70
2022-07-29T00:34:49.364Z,19.50
2022-07-29T00:37:16.174Z,18.80
2022-07-29T00:39:43.010Z,18.90
2022-07-29T00:42:10.676Z,18.50
2022-07-29T00:44:41.771Z,18.80
2022-07-29T00:47:10.083Z,19.20
2022-07-29T00:49:37.575Z,19.10
2022-07-29T00:52:06.352Z,19.00
2022-07-29T00:54:34.446Z,19.40
2022-07-29T00:57:01.843Z,18.90
2022-07-29T00:59:35.129Z,19.00
2022-07-29T01:02:03.686Z,19.00
2022-07-29T01:04:31.913Z,18.60
2022-07-29T01:06:59.629Z,18.60
2022-07-29T01:09:35.994Z,18.90
2022-07-29T01:12:14.454Z,18.80
2022-07-29T01:14:42.507Z,18.60
2022-07-29T01:17:19.896Z,18.90
2022-07-29T01:20:32.426Z,19.10
2022-07-29T01:23:08.094Z,19.10
2022-07-29T01:26:21.930Z,19.30
2022-07-29T01:28:54.835Z,19.10
2022-07-29T01:31:47.457Z,19.10
2022-07-29T01:34:47.750Z,18.40
2022-07-29T01:37:28.002Z,19.20
2022-07-29T01:39:58.392Z,19.10
2022-07-29T01:42:33.850Z,19.00
2022-07-29T01:45:07.112Z,19.40
2022-07-29T01:47:44.287Z,18.60
2022-07-29T01:50:13.927Z,19.00
2022-07-29T01:52:43.328Z,19.20
2022-07-29T01:55:17.411Z,19.40
2022-07-29T01:57:47.552Z,19.10
2022-07-29T02:00:15.614Z,19.30
2022-07-29T02:02:45.161Z,19.20
2022-07-29T02:05:18.664Z,19.50
2022-07-29T02:07:48.445Z,19.50
2022-07-29T02:10:17.849Z,19.30
2022-07-29T02:12:50.710Z,19.40
2022-07-29T02:15:19.083Z,18.70
2022-07-29T02:17:52.568Z,19.20
2022-07-29T02:20:20.159Z,19.10
2022-07-29T02:22:48.431Z,19.00
2022-07-29T02:25:17.459Z,19.10
2022-07-29T02:27:45.398Z,19.20
2022-07-29T02:30:13.655Z,19.30
2022-07-29T02:32:42.600Z,18.90
2022-07-29T02:35:11.658Z,18.70
2022-07-29T02:37:38.976Z,19.20
2022-07-29T02:40:10.359Z,19.00
2022-07-29T02:42:39.525Z,19.30
2022-07-29T02:45:08.194Z,19.30
2022-07-29T02:47:41.592Z,18.90
2022-07-29T02:50:35.011Z,19.00
2022-07-29T02:53:17.646Z,19.20
2022-07-29T02:55:49.796Z,19.30
2022-07-29T02:58:31.700Z,19.40
2022-07-29T03:01:02.144Z,19.00
2022-07-29T03:03:32.397Z,19.20
2022-07-29T03:06:00.720Z,19.10
2022-07-29T03:08:28.570Z,18.80
2022-07-29T03:10:56.061Z,18.90
2022-07-29T03:13:23.707Z,19.50
2022-07-29T03:15:51.114Z,19.30
2022-07-29T03:18:18.072Z,19.30
2022-07-29T03:20:44.845Z,19.10
2022-07-29T03:23:11.689Z,18.60
2022-07-29T03:25:38.658Z,18.90
2022-07-29T03:28:05.468Z,18.80
2022-07-29T03:30:32.343Z,19.10
2022-07-29T03:32:59.037Z,19.20
2022-07-29T03:35:25.887Z,19.30
2022-07-29T03:37:52.749Z,19.00
2022-07-29T03:40:53.613Z,19.00
2022-07-29T03:43:22.925Z,18.90
2022-07-29T03:45:53.669Z,19.10
2022-07-29T03:48:23.339Z,18.70
2022-07-29T03:50:51.613Z,18.90
2022-07-29T03:53:20.320Z,19.20
2022-07-29T03:55:53.618Z,19.00
2022-07-29T03:58:20.947Z,19.40
2022-07-29T04:00:48.097Z,18.70
2022-07-29T04:03:16.331Z,18.20
2022-07-29T04:05:43.118Z,18.40
2022-07-29T04:08:09.849Z,18.90
2022-07-29T04:10:36.582Z,18.90
2022-07-29T04:13:03.368Z,18.80
2022-07-29T04:15:31.648Z,18.70
2022-07-29T04:17:59.764Z,18.50
2022-07-29T04:20:26.764Z,18.50
2022-07-29T04:22:53.480Z,18.90
2022-07-29T04:25:20.384Z,19.00
2022-07-29T04:28:02.277Z,19.10
2022-07-29T04:30:30.533Z,19.30
2022-07-29T04:32:57.313Z,19.20
2022-07-29T04:35:24.074Z,18.80
2022-07-29T04:37:50.789Z,18.50
2022-07-29T04:40:17.555Z,18.30
2022-07-29T04:42:46.772Z,18.80
2022-07-29T04:45:14.567Z,18.80
2022-07-29T04:47:41.295Z,19.20
2022-07-29T04:50:09.295Z,18.60
2022-07-29T04:52:36.307Z,18.80
2022-07-29T04:55:04.158Z,19.00
2022-07-29T04:57:31.831Z,18.80
2022-07-29T04:59:58.535Z,19.10
2022-07-29T05:02:25.368Z,18.80
2022-07-29T05:04:52.096Z,19.00
2022-07-29T05:07:18.900Z,19.20
2022-07-29T05:09:45.645Z,19.30
2022-07-29T05:12:12.899Z,19.20
2022-07-29T05:14:39.658Z,19.20
2022-07-29T05:17:06.428Z,19.10
2022-07-29T05:19:33.173Z,19.00
2022-07-29T05:22:01.017Z,18.80
2022-07-29T05:24:27.854Z,18.90
2022-07-29T05:26:54.707Z,19.20
2022-07-29T05:29:44.089Z,19.10
2022-07-29T05:32:08.400Z,19.10
2022-07-29T05:34:35.283Z,18.30
2022-07-29T05:37:02.204Z,18.60
2022-07-29T05:39:36.618Z,18.70
2022-07-29T05:42:15.752Z,18.80
2022-07-29T05:44:42.489Z,18.70
2022-07-29T05:47:09.649Z,18.30
2022-07-29T05:49:36.514Z,18.70
2022-07-29T05:52:03.976Z,17.70
2022-07-29T05:54:30.657Z,18.20
2022-07-29T05:56:57.580Z,18.50
2022-07-29T05:59:29.811Z,18.20
2022-07-29T06:01:58.161Z,17.50
2022-07-29T06:04:25.115Z,18.10
2022-07-29T06:06:51.882Z,18.50
2022-07-29T06:09:18.624Z,18.10
2022-07-29T06:11:45.380Z,18.30
2022-07-29T06:14:12.249Z,18.40
2022-07-29T06:16:39.130Z,18.10
2022-07-29T06:19:05.994Z,18.30
2022-07-29T06:21:32.815Z,18.80
2022-07-29T06:23:59.544Z,18.80
2022-07-29T06:26:30.659Z,18.20
2022-07-29T06:28:59.352Z,18.50
2022-07-29T06:31:26.349Z,18.60
2022-07-29T06:33:53.997Z,18.40
2022-07-29T06:36:23.541Z,18.00
2022-07-29T06:38:52.227Z,18.60
2022-07-29T06:41:19.391Z,18.60
2022-07-29T06:43:52.612Z,19.00
2022-07-29T06:46:23.016Z,19.30
2022-07-29T06:48:51.082Z,18.90
2022-07-29T06:51:22.348Z,19.20
2022-07-29T06:53:58.234Z,19.30
2022-07-29T06:56:26.799Z,19.70
2022-07-29T06:58:53.582Z,20.20
2022-07-29T07:01:20.942Z,19.30
2022-07-29T07:03:48.830Z,19.50
2022-07-29T07:06:15.525Z,19.40
2022-07-29T07:08:42.406Z,19.60
2022-07-29T07:11:09.727Z,19.60
2022-07-29T07:13:36.921Z,19.70
2022-07-29T07:16:04.924Z,18.80
2022-07-29T07:18:31.823Z,19.50
2022-07-29T07:20:59.147Z,19.70
2022-07-29T07:23:26.014Z,19.60
2022-07-29T07:25:52.801Z,19.10
2022-07-29T07:28:24.823Z,19.60
2022-07-29T07:30:52.610Z,19.30
2022-07-29T07:33:19.854Z,20.00
2022-07-29T07:35:48.103Z,20.20
2022-07-29T07:38:14.876Z,19.40
2022-07-29T07:40:42.228Z,19.30
2022-07-29T07:43:09.166Z,19.80
2022-07-29T07:45:38.115Z,19.50
2022-07-29T07:48:06.356Z,19.50
2022-07-29T07:50:33.149Z,18.70
2022-07-29T07:53:03.115Z,19.00
2022-07-29T07:55:47.425Z,19.50
2022-07-29T07:58:16.711Z,19.90
2022-07-29T08:00:43.600Z,20.20
2022-07-29T08:03:16.981Z,19.70
2022-07-29T08:05:47.523Z,19.30
2022-07-29T08:08:14.262Z,20.00
2022-07-29T08:10:53.083Z,20.20
2022-07-29T08:13:22.277Z,19.20
2022-07-29T08:15:58.611Z,20.30
2022-07-29T08:18:26.861Z,20.10
2022-07-29T08:20:53.567Z,20.50
2022-07-29T08:23:20.715Z,20.70
2022-07-29T08:25:47.506Z,20.40
2022-07-29T08:28:25.836Z,20.30
2022-07-29T08:30:53.060Z,20.00
2022-07-29T08:33:22.207Z,20.10
2022-07-29T08:35:50.925Z,19.80
2022-07-29T08:38:17.592Z,19.80
2022-07-29T08:40:44.374Z,20.60
2022-07-29T08:43:11.130Z,20.80
2022-07-29T08:45:50.176Z,20.70
2022-07-29T08:48:22.269Z,20.70
2022-07-29T08:50:53.476Z,20.70
2022-07-29T08:53:20.281Z,20.50
2022-07-29T08:55:49.187Z,20.90
2022-07-29T08:58:16.917Z,20.60
2022-07-29T09:00:47.243Z,19.90
2022-07-29T09:03:19.525Z,20.70
2022-07-29T09:05:48.282Z,21.10
2022-07-29T09:08:16.412Z,21.10
2022-07-29T09:10:45.445Z,21.30
2022-07-29T09:13:13.547Z,20.90
2022-07-29T09:15:40.284Z,21.20
2022-07-29T09:18:06.998Z,21.40
2022-07-29T09:20:52.154Z,21.50
2022-07-29T09:23:23.151Z,21.00
2022-07-29T09:25:51.333Z,21.40
2022-07-29T09:28:19.148Z,21.60
2022-07-29T09:30:53.729Z,21.10
2022-07-29T09:33:23.652Z,21.10
2022-07-29T09:36:03.226Z,21.70
2022-07-29T09:38:31.102Z,21.50
2022-07-29T09:41:05.603Z,21.70
2022-07-29T09:43:34.014Z,22.00
2022-07-29T09:46:14.148Z,21.80
2022-07-29T09:48:41.295Z,21.90
2022-07-29T09:51:21.290Z,21.50
2022-07-29T09:53:51.357Z,22.20
2022-07-29T09:56:20.356Z,21.90
2022-07-29T09:58:47.081Z,21.20
2022-07-29T10:01:13.915Z,21.70
2022-07-29T10:03:53.895Z,22.20
2022-07-29T10:06:20.710Z,22.30
2022-07-29T10:08:47.838Z,22.20
2022-07-29T10:11:16.801Z,22.00
2022-07-29T10:13:47.990Z,21.70
2022-07-29T10:16:16.532Z,22.30
2022-07-29T10:18:44.784Z,22.20
2022-07-29T10:21:12.632Z,22.60
2022-07-29T10:24:01.291Z,22.60
2022-07-29T10:26:29.890Z,22.20
2022-07-29T10:28:56.841Z,22.80
2022-07-29T10:31:46.267Z,23.00
2022-07-29T10:34:33.392Z,23.10
2022-07-29T10:37:26.882Z,22.50
2022-07-29T10:40:01.604Z,23.00
2022-07-29T10:45:18.718Z,22.50
2022-07-29T10:47:46.265Z,23.00
2022-07-29T10:50:17.038Z,22.70
2022-07-29T10:52:57.948Z,23.00
2022-07-29T10:55:37.503Z,23.00
2022-07-29T10:58:19.356Z,22.70
2022-07-29T11:00:54.589Z,22.90
2022-07-29T11:03:41.575Z,22.90
2022-07-29T11:06:16.748Z,22.70
2022-07-29T11:08:45.349Z,22.70
2022-07-29T11:11:29.784Z,22.70
2022-07-29T11:13:57.032Z,23.00
2022-07-29T11:16:25.342Z,22.80
2022-07-29T11:19:14.461Z,23.20
2022-07-29T11:22:05.482Z,22.90
2022-07-29T11:24:34.800Z,22.60
2022-07-29T11:27:23.280Z,22.70
2022-07-29T11:29:52.015Z,22.90
2022-07-29T11:32:23.354Z,22.70
2022-07-29T11:35:37.025Z,23.00
2022-07-29T11:38:23.568Z,23.20
2022-07-29T11:41:27.236Z,23.60
2022-07-29T11:43:56.372Z,23.50
2022-07-29T11:46:50.000Z,23.30
2022-07-29T11:49:31.933Z,23.60
2022-07-29T11:52:02.531Z,23.50
2022-07-29T11:54:57.978Z,23.30
2022-07-29T11:57:37.129Z,22.60
2022-07-29T12:00:12.484Z,22.90
2022-07-29T12:02:43.543Z,23.10
2022-07-29T12:05:24.046Z,23.50
2022-07-29T12:08:12.751Z,23.30
2022-07-29T12:10:42.715Z,23.40
2022-07-29T12:13:11.198Z,23.30
2022-07-29T12:15:46.973Z,23.30
2022-07-29T12:18:20.035Z,23.40
2022-07-29T12:21:04.710Z,23.70
2022-07-29T12:23:34.376Z,23.70
2022-07-29T12:26:01.456Z,23.80
2022-07-29T12:28:29.191Z,23.90
2022-07-29T12:30:57.724Z,24.10
2022-07-29T12:33:28.478Z,24.00
2022-07-29T12:36:06.835Z,24.20
2022-07-29T12:38:37.891Z,24.20
2022-07-29T12:41:05.063Z,23.60
2022-07-29T12:43:32.535Z,23.70
2022-07-29T12:46:12.138Z,24.20
2022-07-29T12:48:44.681Z,23.70
2022-07-29T12:51:13.398Z,24.00
2022-07-29T12:53:40.410Z,24.40
2022-07-29T12:56:41.377Z,24.00
2022-07-29T12:59:16.623Z,24.10
2022-07-29T13:01:44.103Z,24.50
2022-07-29T13:04:10.933Z,24.50
2022-07-29T13:06:45.713Z,24.40
2022-07-29T13:09:15.103Z,24.40
2022-07-29T13:11:48.379Z,24.60
2022-07-29T13:14:42.239Z,24.50
2022-07-29T13:17:11.752Z,24.60
2022-07-29T13:19:50.602Z,24.40
2022-07-29T13:22:21.562Z,24.70
2022-07-29T13:25:00.119Z,24.50
2022-07-29T13:27:28.672Z,24.70
2022-07-29T13:30:00.467Z,24.70
2022-07-29T13:32:29.516Z,24.60
2022-07-29T13:34:57.952Z,24.40
2022-07-29T13:37:24.986Z,24.50
2022-07-29T13:39:53.118Z,24.70
2022-07-29T13:42:20.607Z,24.70
2022-07-29T13:44:47.328Z,24.60
2022-07-29T13:47:14.111Z,24.90
2022-07-29T13:49:40.885Z,24.90
2022-07-29T13:52:08.415Z,24.80
2022-07-29T13:54:42.071Z,24.90
2022-07-29T13:57:09.518Z,24.70
2022-07-29T13:59:36.261Z,24.60
2022-07-29T14:02:03.523Z,24.60
2022-07-29T14:04:30.369Z,24.90
2022-07-29T14:06:57.251Z,24.80
2022-07-29T14:09:24.022Z,24.80
2022-07-29T14:11:52.275Z,24.70
2022-07-29T14:14:19.403Z,24.30
2022-07-29T14:16:47.728Z,24.70
2022-07-29T14:19:15.815Z,24.90
2022-07-29T14:21:42.515Z,25.00
2022-07-29T14:24:17.945Z,25.00
2022-07-29T14:26:48.632Z,24.80
2022-07-29T14:29:15.932Z,24.80
2022-07-29T14:31:44.714Z,24.70
2022-07-29T14:34:11.599Z,24.70
2022-07-29T14:36:38.288Z,24.80
2022-07-29T14:39:05.141Z,25.00
2022-07-29T14:41:31.890Z,24.60
2022-07-29T14:44:01.497Z,24.90
2022-07-29T14:46:28.774Z,24.80
2022-07-29T14:48:55.977Z,24.90
2022-07-29T14:51:23.057Z,24.90
2022-07-29T14:53:49.925Z,24.70
2022-07-29T14:56:36.098Z,24.90
2022-07-29T14:59:03.682Z,25.00
2022-07-29T15:01:30.490Z,24.90
2022-07-29T15:03:59.786Z,24.90
2022-07-29T15:06:27.350Z,24.80
2022-07-29T15:08:55.662Z,24.80
2022-07-29T15:11:22.698Z,24.50
2022-07-29T15:13:49.508Z,24.50
2022-07-29T15:16:16.322Z,24.70
2022-07-29T15:18:43.070Z,24.70
2022-07-29T15:21:09.768Z,24.90
2022-07-29T15:23:37.334Z,25.00
2022-07-29T15:26:05.357Z,25.20
2022-07-29T15:28:32.165Z,25.10
2022-07-29T15:30:59.331Z,24.90
2022-07-29T15:33:27.868Z,24.80
2022-07-29T15:35:56.517Z,24.90
2022-07-29T15:38:28.950Z,25.00
2022-07-29T15:40:55.887Z,25.00
2022-07-29T15:43:23.067Z,25.00
2022-07-29T15:46:09.671Z,25.00
2022-07-29T15:48:39.491Z,24.90
2022-07-29T15:51:06.488Z,24.90
2022-07-29T15:53:33.857Z,25.00
2022-07-29T15:56:03.657Z,25.10
2022-07-29T15:58:30.707Z,24.90
2022-07-29T16:00:57.559Z,25.00
2022-07-29T16:03:24.761Z,25.20
2022-07-29T16:05:51.826Z,25.10
2022-07-29T16:08:18.920Z,24.90
2022-07-29T16:10:45.624Z,24.80
2022-07-29T16:13:12.312Z,24.80
2022-07-29T16:15:45.413Z,24.80
2022-07-29T16:18:30.180Z,24.90
2022-07-29T16:20:57.730Z,25.00
2022-07-29T16:23:24.785Z,25.10
2022-07-29T16:25:59.741Z,24.90
2022-07-29T16:28:27.973Z,24.80
2022-07-29T16:30:54.715Z,24.60
2022-07-29T16:33:21.540Z,24.80
2022-07-29T16:35:48.303Z,24.70
2022-07-29T16:38:15.250Z,24.60
2022-07-29T16:40:42.473Z,24.40
2022-07-29T16:43:09.308Z,24.70
2022-07-29T16:45:45.439Z,24.80
2022-07-29T16:48:14.376Z,24.80
2022-07-29T16:50:43.367Z,24.80
2022-07-29T16:53:11.292Z,24.50
2022-07-29T16:55:38.618Z,24.50
2022-07-29T16:58:09.969Z,24.50
2022-07-29T17:00:36.798Z,24.70
2022-07-29T17:03:03.741Z,24.30
2022-07-29T17:05:30.668Z,24.40
2022-07-29T17:08:18.783Z,24.40
2022-07-29T17:10:45.581Z,24.30
2022-07-29T17:13:12.301Z,24.40
2022-07-29T17:15:39.166Z,24.20
2022-07-29T17:18:12.619Z,24.30
2022-07-29T17:20:41.564Z,24.10
2022-07-29T17:23:08.393Z,23.90
2022-07-29T17:25:35.175Z,24.10
2022-07-29T17:28:01.991Z,24.30
2022-07-29T17:30:29.725Z,24.20
2022-07-29T17:32:56.683Z,24.30
2022-07-29T17:35:42.284Z,23.90
2022-07-29T17:38:09.029Z,23.90
2022-07-29T17:40:35.834Z,23.90
2022-07-29T17:43:04.688Z,24.30
2022-07-29T17:45:49.376Z,24.10
2022-07-29T17:48:18.803Z,24.10
2022-07-29T17:50:46.645Z,23.90
2022-07-29T17:53:19.706Z,23.90
2022-07-29T17:55:48.601Z,24.10
2022-07-29T17:58:15.926Z,24.00
2022-07-29T18:00:43.184Z,24.20
2022-07-29T18:03:10.343Z,24.10
2022-07-29T18:05:37.532Z,24.10
2022-07-29T18:08:04.610Z,23.90
2022-07-29T18:10:31.375Z,23.80
2022-07-29T18:12:58.281Z,23.70
2022-07-29T18:15:25.275Z,23.60
2022-07-29T18:17:56.998Z,23.90
2022-07-29T18:20:25.773Z,23.60
2022-07-29T18:22:52.765Z,23.60
2022-07-29T18:25:19.597Z,23.40
2022-07-29T18:27:46.390Z,23.40
2022-07-29T18:30:15.192Z,23.30
2022-07-29T18:32:59.082Z,23.30
2022-07-29T18:35:30.801Z,23.00
2022-07-29T18:38:01.450Z,23.30
2022-07-29T18:40:29.690Z,23.20
2022-07-29T18:42:56.651Z,23.20
2022-07-29T18:45:28.243Z,22.90
2022-07-29T18:47:56.402Z,23.00
2022-07-29T18:50:28.850Z,23.20
2022-07-29T18:53:01.167Z,22.90
2022-07-29T18:55:27.841Z,23.00
2022-07-29T18:57:57.216Z,22.80
2022-07-29T19:00:25.491Z,22.50
2022-07-29T19:02:52.870Z,22.60
2022-07-29T19:05:20.109Z,22.70
2022-07-29T19:07:46.886Z,22.40
2022-07-29T19:10:14.712Z,22.20
2022-07-29T19:12:42.578Z,22.40
2022-07-29T19:15:10.609Z,22.60
2022-07-29T19:17:37.954Z,22.70
2022-07-29T19:20:05.831Z,22.70
2022-07-29T19:22:34.218Z,22.60
2022-07-29T19:25:01.055Z,22.70
2022-07-29T19:27:27.865Z,22.60
2022-07-29T19:29:58.780Z,22.80
2022-07-29T19:32:26.147Z,22.60
2022-07-29T19:35:12.150Z,22.60
2022-07-29T19:37:38.828Z,22.50
2022-07-29T19:40:06.827Z,22.60
2022-07-29T19:42:33.973Z,22.40
2022-07-29T19:45:00.712Z,22.20
2022-07-29T19:47:27.536Z,22.20
2022-07-29T19:49:55.239Z,22.50
2022-07-29T19:52:21.990Z,22.50
2022-07-29T19:54:48.691Z,22.70
2022-07-29T19:57:15.421Z,22.60
2022-07-29T19:59:42.165Z,22.60
2022-07-29T20:02:12.228Z,22.70
2022-07-29T20:04:39.781Z,22.70
2022-07-29T20:07:07.169Z,22.70
2022-07-29T20:09:34.805Z,22.50
2022-07-29T20:12:01.645Z,22.40
2022-07-29T20:14:28.494Z,22.20
2022-07-29T20:16:57.136Z,22.40
2022-07-29T20:19:23.985Z,22.40
2022-07-29T20:21:51.475Z,22.40
2022-07-29T20:24:19.198Z,22.50
2022-07-29T20:26:45.939Z,22.60
2022-07-29T20:29:12.715Z,22.70
2022-07-29T20:31:39.475Z,22.70
2022-07-29T20:34:06.382Z,22.90
2022-07-29T20:36:33.274Z,22.80
2022-07-29T20:39:00.061Z,22.90
2022-07-29T20:41:26.928Z,22.90
2022-07-29T20:43:53.617Z,22.90
2022-07-29T20:46:20.427Z,22.90
2022-07-29T20:48:47.821Z,22.70
2022-07-29T20:51:14.819Z,22.70
2022-07-29T20:53:41.887Z,22.50
2022-07-29T20:56:08.867Z,22.70
2022-07-29T20:58:36.407Z,22.80
2022-07-29T21:01:04.119Z,22.80
2022-07-29T21:03:31.080Z,22.80
2022-07-29T21:05:58.229Z,22.90
2022-07-29T21:08:26.400Z,22.90
2022-07-29T21:10:53.875Z,22.90
2022-07-29T21:13:20.614Z,22.80
2022-07-29T21:15:49.793Z,22.80
2022-07-29T21:18:30.778Z,22.80
2022-07-29T21:21:04.583Z,22.70
2022-07-29T21:23:31.428Z,22.60
2022-07-29T21:25:58.631Z,22.50
2022-07-29T21:28:30.502Z,22.40
2022-07-29T21:30:59.061Z,21.80
2022-07-29T21:33:27.395Z,22.20
2022-07-29T21:38:40.885Z,22.20
2022-07-29T21:41:07.779Z,22.10
2022-07-29T21:43:34.508Z,22.00
2022-07-29T21:46:01.464Z,22.30
2022-07-29T21:48:29.100Z,22.40
2022-07-29T21:50:56.847Z,22.50
2022-07-29T21:53:26.868Z,21.90
2022-07-29T21:55:55.519Z,22.20
2022-07-29T21:58:22.925Z,21.90
2022-07-29T22:00:50.222Z,22.10
2022-07-29T22:03:17.021Z,22.30
2022-07-29T22:05:44.382Z,21.90
2022-07-29T22:08:11.521Z,22.20
2022-07-29T22:10:38.469Z,22.00
2022-07-29T22:13:05.234Z,22.20
2022-07-29T22:15:32.259Z,22.20
2022-07-29T22:17:59.072Z,22.30
2022-07-29T22:20:26.183Z,22.20
2022-07-29T22:22:53.660Z,22.30
2022-07-29T22:25:20.734Z,22.30
2022-07-29T22:27:47.443Z,22.20
2022-07-29T22:30:14.777Z,22.30
2022-07-29T22:32:42.005Z,22.20
2022-07-29T22:35:09.299Z,22.20
2022-07-29T22:37:36.142Z,22.20
2022-07-29T22:40:04.704Z,22.20
2022-07-29T22:42:31.479Z,22.30
2022-07-29T22:44:58.179Z,22.30
2022-07-29T22:47:38.797Z,22.20
2022-07-29T22:50:11.663Z,22.10
2022-07-29T22:52:38.387Z,22.30
2022-07-29T22:55:05.653Z,22.30
2022-07-29T22:57:32.481Z,22.20
2022-07-29T23:00:01.676Z,22.30
2022-07-29T23:02:29.157Z,22.20
2022-07-29T23:04:56.032Z,22.30
2022-07-29T23:07:23.761Z,22.30
2022-07-29T23:09:50.554Z,22.20
2022-07-29T23:12:17.549Z,22.20
2022-07-29T23:14:44.312Z,22.20
2022-07-29T23:17:11.448Z,22.30
2022-07-29T23:19:38.207Z,22.30
2022-07-29T23:22:05.833Z,22.20
2022-07-29T23:24:32.499Z,22.20
2022-07-29T23:26:59.586Z,22.20
2022-07-29T23:29:26.768Z,22.20
2022-07-29T23:31:53.474Z,22.20
2022-07-29T23:34:20.252Z,22.20
2022-07-29T23:36:46.947Z,22.20
2022-07-29T23:39:13.756Z,22.10
2022-07-29T23:41:40.653Z,22.20
2022-07-29T23:44:07.454Z,22.20
2022-07-29T23:46:34.220Z,22.10
2022-07-29T23:49:01.018Z,22.10
2022-07-29T23:51:29.215Z,22.10
2022-07-29T23:53:56.296Z,22.10
2022-07-29T23:56:23.383Z,22.10
2022-07-29T23:58:50.133Z,22.10
